createdAt,value
2023-08-15T00:02:27.596Z,100016.56
2023-08-15T00:05:32.448Z,100021.25
2023-08-15T00:08:35.343Z,100032.88
2023-08-15T00:11:38.225Z,100027.09
2023-08-15T00:14:41.127Z,100022.97
2023-08-15T00:17:44.226Z,100024.19
2023-08-15T00:20:49.986Z,100016.75
2023-08-15T00:23:52.861Z,100013.75
2023-08-15T00:26:55.768Z,100012.25
2023-08-15T00:29:58.647Z,100007.72
2023-08-15T00:33:01.624Z,100003.84
2023-08-15T00:36:07.583Z,100002.28
2023-08-15T00:39:10.514Z,100010.19
2023-08-15T00:42:13.467Z,99996.50
2023-08-15T00:45:16.399Z,100000.88
2023-08-15T00:48:19.453Z,99988.75
2023-08-15T00:51:23.863Z,99985.50
2023-08-15T00:54:26.810Z,99993.41
2023-08-15T00:57:29.790Z,99985.03
2023-08-15T01:00:32.984Z,99982.22
2023-08-15T01:03:37.467Z,99971.81
2023-08-15T01:06:41.834Z,99987.97
2023-08-15T01:09:44.734Z,99984.41
2023-08-15T01:12:53.983Z,99986.56
2023-08-15T01:15:56.915Z,99984.06
2023-08-15T01:19:03.006Z,99976.31
2023-08-15T01:22:15.567Z,99981.56
2023-08-15T01:25:20.102Z,99985.94
2023-08-15T01:28:23.444Z,99985.31
2023-08-15T01:31:31.273Z,99978.97
2023-08-15T01:34:36.527Z,99985.00
2023-08-15T01:37:41.313Z,99974.16
2023-08-15T01:40:47.189Z,99981.75
2023-08-15T01:43:50.406Z,99981.13
2023-08-15T01:46:53.406Z,99985.00
2023-08-15T01:49:56.228Z,99987.34
2023-08-15T01:52:59.119Z,99977.88
2023-08-15T01:56:03.418Z,99977.22
2023-08-15T01:59:06.329Z,99976.13
2023-08-15T02:02:09.174Z,99975.47
2023-08-15T02:05:12.185Z,99967.06
2023-08-15T02:08:15.104Z,99978.09
2023-08-15T02:11:19.413Z,99971.84
2023-08-15T02:14:22.486Z,99961.63
2023-08-15T02:17:25.549Z,99959.31
2023-08-15T02:20:28.456Z,99951.53
2023-08-15T02:23:31.352Z,99961.25
2023-08-15T02:26:36.988Z,99964.19
2023-08-15T02:29:39.917Z,99953.19
2023-08-15T02:32:42.837Z,99959.41
2023-08-15T02:35:45.847Z,99960.16
2023-08-15T02:38:48.710Z,99953.00
2023-08-15T02:41:52.967Z,99960.66
2023-08-15T02:44:56.254Z,99957.09
2023-08-15T02:47:59.384Z,99959.88
2023-08-15T02:51:04.679Z,99962.09
2023-08-15T02:54:08.976Z,99962.88
2023-08-15T02:57:13.257Z,99970.44
2023-08-15T03:00:16.798Z,99975.22
2023-08-15T03:03:19.683Z,99959.00
2023-08-15T03:06:22.602Z,99973.81
2023-08-15T03:09:25.518Z,99967.47
2023-08-15T03:12:30.407Z,99963.25
2023-08-15T03:15:33.397Z,99976.84
2023-08-15T03:18:36.492Z,99967.06
2023-08-15T03:21:39.465Z,99970.31
2023-08-15T03:24:43.216Z,99955.56
2023-08-15T03:27:47.693Z,99971.16
2023-08-15T03:30:50.740Z,99968.50
2023-08-15T03:33:53.662Z,99957.81
2023-08-15T03:36:56.684Z,99964.63
2023-08-15T03:39:59.608Z,99969.44
2023-08-15T03:43:04.878Z,99971.44
2023-08-15T03:46:09.224Z,99975.56
2023-08-15T03:49:12.214Z,99961.16
2023-08-15T03:52:15.202Z,99961.38
2023-08-15T03:55:18.107Z,99973.94
2023-08-15T03:58:24.114Z,99966.06
2023-08-15T04:01:26.986Z,99970.91
2023-08-15T04:04:29.865Z,99976.41
2023-08-15T04:07:32.813Z,99976.41
2023-08-15T04:10:40.832Z,99977.00
2023-08-15T04:13:45.294Z,99989.78
2023-08-15T04:16:49.232Z,99987.56
2023-08-15T04:19:54.702Z,99987.44
2023-08-15T04:22:57.619Z,99990.28
2023-08-15T04:26:00.607Z,99984.13
2023-08-15T04:29:05.284Z,99985.88
2023-08-15T04:32:08.362Z,99985.88
2023-08-15T04:35:11.217Z,99991.78
2023-08-15T04:38:15.653Z,99987.63
2023-08-15T04:41:18.700Z,99988.44
2023-08-15T04:44:23.101Z,99987.63
2023-08-15T04:47:25.928Z,99987.66
2023-08-15T04:50:29.152Z,99985.38
2023-08-15T04:53:32.286Z,99984.81
2023-08-15T04:56:40.217Z,99976.44
2023-08-15T04:59:44.842Z,99982.50
2023-08-15T05:02:51.160Z,99988.16
2023-08-15T05:05:54.517Z,99984.13
2023-08-15T05:08:57.692Z,99980.88
2023-08-15T05:12:00.799Z,99991.00
2023-08-15T05:15:09.348Z,99988.09
2023-08-15T05:18:16.948Z,99987.16
2023-08-15T05:21:20.117Z,99988.59
2023-08-15T05:24:26.408Z,99987.47
2023-08-15T05:27:30.412Z,99991.25
2023-08-15T05:30:34.906Z,99985.03
2023-08-15T05:33:37.838Z,99995.75
2023-08-15T05:36:43.587Z,99991.72
2023-08-15T05:39:46.656Z,99991.88
2023-08-15T05:42:49.725Z,99997.63
2023-08-15T05:45:54.146Z,100003.06
2023-08-15T05:48:57.160Z,100001.31
2023-08-15T05:52:01.516Z,100009.34
2023-08-15T05:55:04.651Z,100001.91
2023-08-15T05:58:09.572Z,99997.00
2023-08-15T06:01:14.331Z,100005.56
2023-08-15T06:04:17.521Z,100012.19
2023-08-15T06:07:20.835Z,100008.84
2023-08-15T06:10:24.055Z,100012.53
2023-08-15T06:13:32.417Z,99998.03
2023-08-15T06:16:36.905Z,100011.47
2023-08-15T06:19:42.011Z,100012.16
2023-08-15T06:22:45.109Z,100001.97
2023-08-15T06:25:49.940Z,99999.59
2023-08-15T06:28:52.985Z,100005.41
2023-08-15T06:32:00.382Z,100011.84
2023-08-15T06:35:07.116Z,100010.69
2023-08-15T06:38:12.891Z,100005.75
2023-08-15T06:41:18.696Z,100008.56
2023-08-15T06:44:22.421Z,100008.00
2023-08-15T06:47:26.767Z,100011.69
2023-08-15T06:50:29.708Z,99999.19
2023-08-15T06:53:32.867Z,100011.19
2023-08-15T06:56:36.252Z,100000.75
2023-08-15T06:59:42.815Z,100010.13
2023-08-15T07:02:50.374Z,100003.59
2023-08-15T07:05:56.211Z,99996.53
2023-08-15T07:09:03.008Z,100004.22
2023-08-15T07:12:06.892Z,100003.34
2023-08-15T07:15:10.678Z,100004.47
2023-08-15T07:18:16.993Z,100010.75
2023-08-15T07:21:23.946Z,100016.22
2023-08-15T07:24:27.369Z,100005.59
2023-08-15T07:27:38.742Z,100004.94
2023-08-15T07:30:45.923Z,100011.94
2023-08-15T07:33:50.835Z,100014.63
2023-08-15T07:36:54.160Z,100002.28
2023-08-15T07:40:02.086Z,100003.41
2023-08-15T07:43:05.467Z,100000.59
2023-08-15T07:46:08.668Z,100003.53
2023-08-15T07:49:14.310Z,99993.88
2023-08-15T07:52:17.759Z,100004.81
2023-08-15T07:55:20.856Z,100004.88
2023-08-15T07:58:24.741Z,99995.50
2023-08-15T08:01:30.887Z,99999.41
2023-08-15T08:04:44.381Z,100000.47
2023-08-15T08:07:51.497Z,100002.34
2023-08-15T08:10:54.807Z,100003.44
2023-08-15T08:13:57.850Z,100003.78
2023-08-15T08:17:03.871Z,100002.50
2023-08-15T08:20:13.479Z,100002.78
2023-08-15T08:23:18.236Z,100012.13
2023-08-15T08:26:21.252Z,100004.91
2023-08-15T08:29:24.311Z,100002.94
2023-08-15T08:32:29.719Z,100008.06
2023-08-15T08:35:37.256Z,100010.94
2023-08-15T08:38:40.270Z,100008.41
2023-08-15T08:41:43.674Z,100017.91
2023-08-15T08:44:48.065Z,100019.69
2023-08-15T08:47:51.086Z,100020.47
2023-08-15T08:50:57.212Z,100015.13
2023-08-15T08:54:00.445Z,99996.34
2023-08-15T08:57:05.479Z,100008.94
2023-08-15T09:00:12.774Z,99993.00
2023-08-15T09:03:16.783Z,100001.00
2023-08-15T09:06:21.914Z,99991.75
2023-08-15T09:09:24.957Z,99995.31
2023-08-15T09:12:35.880Z,99991.47
2023-08-15T09:15:39.123Z,99984.78
2023-08-15T09:18:42.367Z,99983.50
2023-08-15T09:21:46.966Z,99972.91
2023-08-15T09:24:50.103Z,99984.44
2023-08-15T09:27:55.272Z,99981.13
2023-08-15T09:31:05.326Z,99977.28
2023-08-15T09:34:11.716Z,99985.19
2023-08-15T09:37:16.399Z,99963.91
2023-08-15T09:40:23.831Z,99967.97
2023-08-15T09:43:26.888Z,99965.09
2023-08-15T09:46:34.210Z,99967.13
2023-08-15T09:49:37.191Z,99968.97
2023-08-15T09:52:44.409Z,99960.66
2023-08-15T09:55:49.438Z,99966.19
2023-08-15T09:58:55.324Z,99958.69
2023-08-15T10:02:00.598Z,99970.66
2023-08-15T10:05:07.663Z,99971.38
2023-08-15T10:08:17.494Z,99959.31
2023-08-15T10:11:21.113Z,99958.19
2023-08-15T10:14:24.844Z,99963.81
2023-08-15T10:17:30.664Z,99960.41
2023-08-15T10:20:37.670Z,99961.72
2023-08-15T10:23:44.760Z,99962.09
2023-08-15T10:26:50.421Z,99962.09
2023-08-15T10:29:59.266Z,99973.31
2023-08-15T10:33:05.330Z,99971.50
2023-08-15T10:36:09.760Z,99953.38
2023-08-15T10:39:19.542Z,99961.81
2023-08-15T10:42:22.597Z,99959.41
2023-08-15T10:45:26.054Z,99970.88
2023-08-15T10:48:47.103Z,99962.72
2023-08-15T10:52:00.556Z,99958.69
2023-08-15T10:55:05.089Z,99967.28
2023-08-15T10:58:09.657Z,99956.34
2023-08-15T11:01:13.744Z,99951.69
2023-08-15T11:04:21.135Z,99971.75
2023-08-15T11:07:28.605Z,99962.31
2023-08-15T11:10:33.002Z,99948.41
2023-08-15T11:13:38.606Z,99946.22
2023-08-15T11:16:41.631Z,99959.44
2023-08-15T11:19:45.954Z,99953.63
2023-08-15T11:22:57.269Z,99953.31
2023-08-15T11:26:06.892Z,99957.97
2023-08-15T11:29:11.718Z,99958.69
2023-08-15T11:32:14.820Z,99940.25
2023-08-15T11:35:18.685Z,99933.16
2023-08-15T11:38:22.094Z,99941.59
2023-08-15T11:41:26.711Z,99940.81
2023-08-15T11:44:29.597Z,99938.75
2023-08-15T11:47:33.461Z,99933.22
2023-08-15T11:50:44.355Z,99935.13
2023-08-15T11:53:51.260Z,99928.44
2023-08-15T11:56:56.236Z,99939.06
2023-08-15T11:59:59.112Z,99933.75
2023-08-15T12:03:02.016Z,99937.50
2023-08-15T12:06:08.243Z,99925.53
2023-08-15T12:09:11.170Z,99923.88
2023-08-15T12:12:21.086Z,99927.06
2023-08-15T12:15:24.357Z,99931.56
2023-08-15T12:18:27.181Z,99920.31
2023-08-15T12:21:30.067Z,99916.94
2023-08-15T12:24:32.921Z,99911.88
2023-08-15T12:27:37.308Z,99907.56
2023-08-15T12:30:40.184Z,99918.00
2023-08-15T12:33:47.307Z,99899.59
2023-08-15T12:36:51.100Z,99901.75
2023-08-15T12:39:54.163Z,99908.13
2023-08-15T12:42:58.506Z,99910.63
2023-08-15T12:46:04.053Z,99912.06
2023-08-15T12:49:06.988Z,99899.00
2023-08-15T12:52:10.005Z,99908.13
2023-08-15T12:55:15.935Z,99893.13
2023-08-15T12:58:20.218Z,99890.50
2023-08-15T13:01:24.179Z,99895.75
2023-08-15T13:04:29.315Z,99895.91
2023-08-15T13:07:32.303Z,99911.31
2023-08-15T13:10:35.268Z,99890.19
2023-08-15T13:13:40.218Z,99892.47
2023-08-15T13:16:43.260Z,99900.78
2023-08-15T13:19:46.199Z,99900.06
2023-08-15T13:22:49.164Z,99890.94
2023-08-15T13:25:52.092Z,99897.00
2023-08-15T13:29:00.578Z,99890.66
2023-08-15T13:32:03.762Z,99899.13
2023-08-15T13:35:11.205Z,99891.78
2023-08-15T13:38:16.313Z,99884.94
2023-08-15T13:41:22.247Z,99875.78
2023-08-15T13:44:29.606Z,99885.34
2023-08-15T13:47:32.694Z,99873.84
2023-08-15T13:50:35.977Z,99877.06
2023-08-15T13:53:39.015Z,99878.38
2023-08-15T13:56:42.295Z,99877.75
2023-08-15T13:59:48.304Z,99877.50
2023-08-15T14:02:52.547Z,99873.81
2023-08-15T14:05:56.020Z,99888.44
2023-08-15T14:08:59.222Z,99868.91
2023-08-15T14:12:02.253Z,99873.91
2023-08-15T14:15:09.694Z,99876.19
2023-08-15T14:18:13.713Z,99866.81
2023-08-15T14:21:17.313Z,99868.06
2023-08-15T14:24:21.624Z,99875.56
2023-08-15T14:27:25.316Z,99861.47
2023-08-15T14:30:29.748Z,99871.91
2023-08-15T14:33:34.941Z,99873.09
2023-08-15T14:36:40.768Z,99880.44
2023-08-15T14:39:47.535Z,99870.88
2023-08-15T14:42:51.399Z,99868.97
2023-08-15T14:45:58.949Z,99870.59
2023-08-15T14:49:05.425Z,99858.75
2023-08-15T14:52:12.511Z,99862.81
2023-08-15T14:55:20.577Z,99860.91
2023-08-15T14:58:23.605Z,99868.91
2023-08-15T15:01:28.460Z,99864.63
2023-08-15T15:04:31.506Z,99856.41
2023-08-15T15:07:34.807Z,99861.38
2023-08-15T15:10:37.877Z,99856.44
2023-08-15T15:13:45.219Z,99855.66
2023-08-15T15:16:54.391Z,99849.59
2023-08-15T15:19:57.573Z,99844.69
2023-08-15T15:23:00.636Z,99848.06
2023-08-15T15:26:05.248Z,99836.81
2023-08-15T15:29:11.121Z,99826.91
2023-08-15T15:32:17.750Z,99838.19
2023-08-15T15:35:23.018Z,99844.38
2023-08-15T15:38:26.296Z,99827.19
2023-08-15T15:41:29.240Z,99836.22
2023-08-15T15:44:35.436Z,99828.84
2023-08-15T15:47:40.140Z,99838.19
2023-08-15T15:50:43.149Z,99818.09
2023-08-15T15:53:46.188Z,99818.41
2023-08-15T15:56:49.410Z,99812.53
2023-08-15T15:59:52.476Z,99815.34
2023-08-15T16:03:00.620Z,99805.03
2023-08-15T16:06:03.751Z,99815.69
2023-08-15T16:09:07.669Z,99813.63
2023-08-15T16:12:10.868Z,99820.28
2023-08-15T16:15:13.936Z,99809.53
2023-08-15T16:18:18.403Z,99814.25
2023-08-15T16:21:27.352Z,99811.88
2023-08-15T16:24:30.975Z,99811.06
2023-08-15T16:27:33.916Z,99815.47
2023-08-15T16:30:36.913Z,99816.63
2023-08-15T16:33:41.247Z,99826.19
2023-08-15T16:36:44.186Z,99827.88
2023-08-15T16:39:50.038Z,99825.47
2023-08-15T16:42:57.291Z,99823.41
2023-08-15T16:46:00.180Z,99828.69
2023-08-15T16:49:07.568Z,99826.28
2023-08-15T16:52:10.943Z,99833.56
2023-08-15T16:55:14.408Z,99821.38
2023-08-15T16:58:17.359Z,99825.56
2023-08-15T17:01:23.311Z,99833.34
2023-08-15T17:04:28.262Z,99832.38
2023-08-15T17:07:34.828Z,99840.25
2023-08-15T17:10:38.961Z,99837.53
2023-08-15T17:13:47.329Z,99833.00
2023-08-15T17:16:50.347Z,99833.53
2023-08-15T17:19:56.598Z,99841.09
2023-08-15T17:22:59.975Z,99841.31
2023-08-15T17:26:02.984Z,99846.59
2023-08-15T17:29:07.317Z,99847.28
2023-08-15T17:32:11.370Z,99842.88
2023-08-15T17:35:18.737Z,99853.13
2023-08-15T17:38:24.267Z,99866.72
2023-08-15T17:41:28.253Z,99864.25
2023-08-15T17:44:31.782Z,99864.91
2023-08-15T17:47:36.169Z,99867.63
2023-08-15T17:50:41.837Z,99877.69
2023-08-15T17:53:46.290Z,99886.50
2023-08-15T17:56:49.749Z,99890.78
2023-08-15T17:59:53.439Z,99895.72
2023-08-15T18:02:57.455Z,99896.59
2023-08-15T18:06:03.352Z,99905.59
2023-08-15T18:09:06.950Z,99905.03
2023-08-15T18:12:11.704Z,99910.47
2023-08-15T18:15:17.431Z,99901.88
2023-08-15T18:18:21.973Z,99912.31
2023-08-15T18:21:26.698Z,99902.22
2023-08-15T18:24:29.625Z,99916.28
2023-08-15T18:27:33.553Z,99913.88
2023-08-15T18:30:37.404Z,99916.31
2023-08-15T18:33:41.571Z,99916.91
2023-08-15T18:36:47.154Z,99915.59
2023-08-15T18:39:51.746Z,99925.91
2023-08-15T18:42:54.856Z,99934.50
2023-08-15T18:45:58.969Z,99943.97
2023-08-15T18:49:02.651Z,99941.16
2023-08-15T18:52:09.226Z,99954.38
2023-08-15T18:55:13.539Z,99952.63
2023-08-15T18:58:18.174Z,99957.03
2023-08-15T19:01:21.576Z,99956.78
2023-08-15T19:04:25.770Z,99946.28
2023-08-15T19:07:33.853Z,99960.41
2023-08-15T19:10:38.208Z,99959.34
2023-08-15T19:13:42.789Z,99974.25
2023-08-15T19:16:46.671Z,99971.19
2023-08-15T19:19:53.722Z,99978.38
2023-08-15T19:22:59.462Z,99983.28
2023-08-15T19:26:03.872Z,99972.50
2023-08-15T19:29:07.840Z,99977.34
2023-08-15T19:32:11.953Z,99987.41
2023-08-15T19:35:15.690Z,99981.47
2023-08-15T19:38:21.460Z,99961.66
2023-08-15T19:41:25.314Z,99975.53
2023-08-15T19:44:31.104Z,99971.66
2023-08-15T19:47:35.296Z,99976.75
2023-08-15T19:50:39.280Z,99973.66
2023-08-15T19:53:43.636Z,99972.38
2023-08-15T19:56:47.509Z,99972.31
2023-08-15T19:59:51.961Z,99965.88
2023-08-15T20:02:56.563Z,99962.00
2023-08-15T20:06:00.716Z,99969.47
2023-08-15T20:09:06.491Z,99975.06
2023-08-15T20:12:10.651Z,99961.72
2023-08-15T20:15:13.712Z,99958.50
2023-08-15T20:18:17.713Z,99953.09
2023-08-15T20:21:22.020Z,99956.66
2023-08-15T20:24:27.166Z,99952.81
2023-08-15T20:27:30.519Z,99950.41
2023-08-15T20:30:34.063Z,99965.19
2023-08-15T20:33:37.553Z,99964.06
2023-08-15T20:36:40.832Z,99962.25
2023-08-15T20:39:45.041Z,99960.22
2023-08-15T20:42:48.239Z,99954.38
2023-08-15T20:45:52.929Z,99952.31
2023-08-15T20:48:55.809Z,99936.44
2023-08-15T20:51:58.972Z,99952.03
2023-08-15T20:55:04.250Z,99937.13
2023-08-15T20:58:07.516Z,99938.34
2023-08-15T21:01:10.487Z,99931.13
2023-08-15T21:04:13.391Z,99938.09
2023-08-15T21:07:16.313Z,99937.31
2023-08-15T21:10:20.671Z,99932.00
2023-08-15T21:13:23.628Z,99930.16
2023-08-15T21:16:27.032Z,99934.59
2023-08-15T21:19:29.895Z,99930.50
2023-08-15T21:22:34.005Z,99930.53
2023-08-15T21:25:38.301Z,99933.84
2023-08-15T21:28:41.410Z,99918.97
2023-08-15T21:31:44.733Z,99933.53
2023-08-15T21:34:47.625Z,99935.84
2023-08-15T21:37:50.530Z,99933.81
2023-08-15T21:40:54.920Z,99944.59
2023-08-15T21:43:57.730Z,99945.91
2023-08-15T21:47:00.545Z,99956.88
2023-08-15T21:50:04.381Z,99963.06
2023-08-15T21:53:07.315Z,99966.59
2023-08-15T21:56:11.578Z,99974.06
2023-08-15T21:59:14.533Z,99982.28
2023-08-15T22:02:17.937Z,99991.75
2023-08-15T22:05:20.996Z,99991.00
2023-08-15T22:08:23.954Z,99998.78
2023-08-15T22:11:28.274Z,100017.41
2023-08-15T22:14:31.093Z,99995.19
2023-08-15T22:17:45.147Z,100004.44
2023-08-15T22:20:49.605Z,100008.38
2023-08-15T22:23:52.522Z,100014.50
2023-08-15T22:26:57.018Z,100003.66
2023-08-15T22:29:59.879Z,100021.69
2023-08-15T22:33:02.870Z,100031.09
2023-08-15T22:36:06.393Z,100013.16
2023-08-15T22:39:09.261Z,100029.03
2023-08-15T22:42:13.882Z,100029.81
2023-08-15T22:45:16.915Z,100025.91
2023-08-15T22:48:19.816Z,100029.81
2023-08-15T22:51:22.787Z,100026.00
2023-08-15T22:54:25.724Z,100009.31
2023-08-15T22:57:30.022Z,100001.66
2023-08-15T23:00:32.964Z,100002.91
2023-08-15T23:03:36.116Z,100010.13
2023-08-15T23:06:39.113Z,100000.38
2023-08-15T23:09:42.016Z,99995.25
2023-08-15T23:12:49.083Z,100000.59
2023-08-15T23:15:52.274Z,100005.28
2023-08-15T23:18:55.304Z,99992.72
2023-08-15T23:21:58.232Z,99971.75
2023-08-15T23:25:03.801Z,99978.72
2023-08-15T23:28:08.629Z,99977.63
2023-08-15T23:31:12.483Z,99972.00
2023-08-15T23:34:15.615Z,99973.31
2023-08-15T23:37:18.530Z,99974.78
2023-08-15T23:40:21.631Z,99982.75
2023-08-15T23:43:25.837Z,99980.66
2023-08-15T23:46:28.763Z,99975.81
2023-08-15T23:49:31.767Z,99970.16
2023-08-15T23:52:34.918Z,99980.88
2023-08-15T23:55:37.821Z,99978.06
2023-08-15T23:58:42.840Z,99983.22
